Time;durP1;ratioP1;P1;durP2;ratioP2;P2;SDS_P1;SDS_P2;PMS_P1;PMS_P2;Temp;Humidity;BMP_temperature;BMP_pressure;BME280_temperature;BME280_humidity;BME280_pressure;Samples;Min_cycle;Max_cycle;Signal;HPM_P1;HPM_P2
2023/12/01 00:00:05;;;;;;;23.93;16.33;;;;;;;;;;4957860;29;21096;-84
2023/12/01 00:03:09;;;;;;;24.47;16.63;;;;;;;;;;4957355;29;20552;-85
2023/12/01 00:06:13;;;;;;;23.47;15.63;;;;;;;;;;4955921;29;20563;-85
2023/12/01 00:09:18;;;;;;;24.87;16.80;;;;;;;;;;4955330;29;20551;-85
2023/12/01 00:12:22;;;;;;;23.80;16.07;;;;;;;;;;4959154;28;20546;-85
2023/12/01 00:15:27;;;;;;;22.87;15.10;;;;;;;;;;4959466;29;20542;-85
2023/12/01 00:18:31;;;;;;;21.63;15.17;;;;;;;;;;4960314;28;21229;-85
2023/12/01 00:21:35;;;;;;;23.00;16.73;;;;;;;;;;4948846;29;20562;-85
2023/12/01 00:24:39;;;;;;;27.00;15.80;;;;;;;;;;4959844;29;20552;-85
2023/12/01 00:27:43;;;;;;;24.27;16.47;;;;;;;;;;4960861;29;21202;-85
2023/12/01 00:30:48;;;;;;;23.63;14.93;;;;;;;;;;4948809;29;20551;-85
2023/12/01 00:33:52;;;;;;;26.07;16.23;;;;;;;;;;4959903;29;20568;-85
2023/12/01 00:36:56;;;;;;;25.33;16.17;;;;;;;;;;4959529;29;20654;-85
2023/12/01 00:40:00;;;;;;;23.73;15.87;;;;;;;;;;4959402;29;20544;-85
2023/12/01 00:43:04;;;;;;;21.80;14.57;;;;;;;;;;4938135;29;20566;-85
2023/12/01 00:46:09;;;;;;;24.57;16.23;;;;;;;;;;4959989;29;20917;-85
2023/12/01 00:49:12;;;;;;;26.20;15.83;;;;;;;;;;4960638;29;20900;-85
2023/12/01 00:52:17;;;;;;;24.80;16.10;;;;;;;;;;4960803;29;21099;-85
2023/12/01 00:55:21;;;;;;;22.93;15.93;;;;;;;;;;4959699;29;20925;-85
2023/12/01 00:58:26;;;;;;;22.23;15.53;;;;;;;;;;4948426;29;21198;-85
2023/12/01 01:01:30;;;;;;;23.93;16.37;;;;;;;;;;4948653;29;20554;-85
2023/12/01 01:04:34;;;;;;;22.50;15.77;;;;;;;;;;4948595;29;20570;-85
2023/12/01 01:07:38;;;;;;;24.20;16.50;;;;;;;;;;4958988;29;20618;-85
2023/12/01 01:10:42;;;;;;;25.30;15.23;;;;;;;;;;4959718;29;20633;-85
2023/12/01 01:13:46;;;;;;;25.53;15.40;;;;;;;;;;4960469;29;20562;-85
2023/12/01 01:16:50;;;;;;;24.83;16.77;;;;;;;;;;4959920;29;20699;-85
2023/12/01 01:19:55;;;;;;;26.30;16.17;;;;;;;;;;4948739;29;20942;-85
2023/12/01 01:22:59;;;;;;;24.77;15.67;;;;;;;;;;4958790;28;20560;-85
2023/12/01 01:26:03;;;;;;;23.43;16.43;;;;;;;;;;4958921;29;20557;-85
2023/12/01 01:29:08;;;;;;;23.83;15.97;;;;;;;;;;4958480;29;20551;-85
2023/12/01 01:32:12;;;;;;;23.50;15.17;;;;;;;;;;4947557;29;20568;-85
2023/12/01 01:35:16;;;;;;;22.60;14.93;;;;;;;;;;4958650;29;20552;-85
2023/12/01 01:38:20;;;;;;;22.60;15.40;;;;;;;;;;4959140;29;20665;-85
2023/12/01 01:41:25;;;;;;;23.63;15.73;;;;;;;;;;4959160;29;20558;-85
2023/12/01 01:44:29;;;;;;;24.43;16.57;;;;;;;;;;4958412;29;20551;-85
2023/12/01 01:47:33;;;;;;;25.30;16.33;;;;;;;;;;4946930;29;21212;-85
2023/12/01 01:50:37;;;;;;;23.93;16.37;;;;;;;;;;4947224;29;20559;-85
2023/12/01 01:53:41;;;;;;;22.23;15.20;;;;;;;;;;4958179;29;20918;-85
2023/12/01 01:56:46;;;;;;;24.97;16.07;;;;;;;;;;4958754;29;20663;-85
2023/12/01 01:59:50;;;;;;;22.83;15.60;;;;;;;;;;4947680;29;20551;-85
2023/12/01 02:02:54;;;;;;;23.97;15.70;;;;;;;;;;4958328;29;20557;-85
2023/12/01 02:05:58;;;;;;;23.70;15.47;;;;;;;;;;4959187;29;20548;-85
2023/12/01 02:09:03;;;;;;;24.77;15.30;;;;;;;;;;4959150;29;21120;-85
2023/12/01 02:12:07;;;;;;;20.70;14.30;;;;;;;;;;4959158;29;20905;-85
2023/12/01 02:15:12;;;;;;;24.50;16.40;;;;;;;;;;4959531;29;20543;-85
2023/12/01 02:18:25;;;;;;;23.50;16.00;;;;;;;;;;4959512;28;20666;-85
2023/12/01 02:21:36;;;;;;;23.13;15.50;;;;;;;;;;4959180;29;20544;-85
2023/12/01 02:24:40;;;;;;;22.30;15.43;;;;;;;;;;4959675;29;20543;-85
2023/12/01 02:27:44;;;;;;;23.83;15.23;;;;;;;;;;4959033;29;20611;-85
2023/12/01 02:30:50;;;;;;;21.80;15.33;;;;;;;;;;4947550;29;20556;-85
2023/12/01 02:33:55;;;;;;;24.33;16.30;;;;;;;;;;4947020;28;20192;-85
2023/12/01 02:37:05;;;;;;;22.60;14.63;;;;;;;;;;4958034;29;20654;-85
2023/12/01 02:40:16;;;;;;;24.57;16.23;;;;;;;;;;4936805;29;20556;-85
2023/12/01 02:43:20;;;;;;;23.33;15.50;;;;;;;;;;4958012;29;20180;-85
2023/12/01 02:46:24;;;;;;;24.43;16.03;;;;;;;;;;4947273;29;20556;-85
2023/12/01 02:49:28;;;;;;;25.97;16.73;;;;;;;;;;4958516;29;20548;-85
2023/12/01 02:52:33;;;;;;;24.47;16.47;;;;;;;;;;4957670;29;20552;-85
2023/12/01 02:55:37;;;;;;;25.43;16.00;;;;;;;;;;4957791;29;20555;-85
2023/12/01 02:58:41;;;;;;;20.90;13.83;;;;;;;;;;4956783;29;20662;-85
2023/12/01 03:01:45;;;;;;;21.50;14.03;;;;;;;;;;4957087;29;20539;-85
2023/12/01 03:04:49;;;;;;;21.67;14.47;;;;;;;;;;4957459;29;20548;-84
2023/12/01 03:07:53;;;;;;;21.87;14.80;;;;;;;;;;4956839;29;20612;-85
2023/12/01 03:10:58;;;;;;;27.00;16.90;;;;;;;;;;4957782;29;21087;-85
2023/12/01 03:14:07;;;;;;;27.33;16.10;;;;;;;;;;4958490;29;20572;-85
2023/12/01 03:17:11;;;;;;;23.30;15.87;;;;;;;;;;4947122;29;20659;-85
2023/12/01 03:20:16;;;;;;;27.00;15.37;;;;;;;;;;4936654;29;21112;-85
2023/12/01 03:23:20;;;;;;;23.97;16.27;;;;;;;;;;4958314;29;21092;-85
2023/12/01 03:26:24;;;;;;;21.17;14.63;;;;;;;;;;4959013;29;20551;-85
2023/12/01 03:29:28;;;;;;;26.33;16.57;;;;;;;;;;4947217;29;20563;-84
2023/12/01 03:32:32;;;;;;;25.17;16.20;;;;;;;;;;4957682;29;20563;-84
2023/12/01 03:35:36;;;;;;;23.37;15.10;;;;;;;;;;4936050;29;20569;-84
2023/12/01 03:38:40;;;;;;;23.73;16.00;;;;;;;;;;4946796;29;20658;-84
2023/12/01 03:41:48;;;;;;;23.03;14.80;;;;;;;;;;4958773;29;20553;-84
2023/12/01 03:44:52;;;;;;;23.60;15.13;;;;;;;;;;4946280;29;20562;-84
2023/12/01 03:47:56;;;;;;;22.57;14.93;;;;;;;;;;4949992;29;20622;-84
2023/12/01 03:51:00;;;;;;;23.47;14.73;;;;;;;;;;4950461;29;20730;-84
2023/12/01 03:54:04;;;;;;;23.17;15.00;;;;;;;;;;4961074;29;21091;-84
2023/12/01 03:57:08;;;;;;;23.77;15.17;;;;;;;;;;4960860;29;20657;-84
2023/12/01 04:00:16;;;;;;;22.70;14.23;;;;;;;;;;4961539;29;20552;-84
2023/12/01 04:03:20;;;;;;;21.33;13.97;;;;;;;;;;4961678;29;20546;-84
2023/12/01 04:06:24;;;;;;;21.30;13.63;;;;;;;;;;4961856;29;20550;-84
2023/12/01 04:09:28;;;;;;;19.73;12.77;;;;;;;;;;4961031;29;20548;-84
2023/12/01 04:12:32;;;;;;;19.00;12.97;;;;;;;;;;4950542;29;20554;-84
2023/12/01 04:15:36;;;;;;;18.83;13.37;;;;;;;;;;4950353;29;20548;-84
2023/12/01 04:18:41;;;;;;;17.77;12.27;;;;;;;;;;4960453;28;20661;-85
2023/12/01 04:21:47;;;;;;;17.93;11.87;;;;;;;;;;4949562;29;20555;-84
2023/12/01 04:24:51;;;;;;;21.93;13.77;;;;;;;;;;4960625;29;20552;-85
2023/12/01 04:27:58;;;;;;;15.77;11.50;;;;;;;;;;4961566;29;20635;-84
2023/12/01 04:31:05;;;;;;;18.83;13.23;;;;;;;;;;4961666;29;20552;-85
2023/12/01 04:34:09;;;;;;;20.57;13.67;;;;;;;;;;4960586;29;20899;-85
2023/12/01 04:37:15;;;;;;;18.00;12.43;;;;;;;;;;4960336;29;21219;-85
2023/12/01 04:40:19;;;;;;;20.00;13.33;;;;;;;;;;4962905;29;20555;-85
2023/12/01 04:43:24;;;;;;;17.23;12.27;;;;;;;;;;4961292;29;20546;-85
2023/12/01 04:46:28;;;;;;;18.87;12.33;;;;;;;;;;4963244;29;21105;-85
2023/12/01 04:49:32;;;;;;;19.73;13.37;;;;;;;;;;4963685;29;20562;-85
2023/12/01 04:52:37;;;;;;;17.73;12.13;;;;;;;;;;4962222;29;20184;-85
2023/12/01 04:55:41;;;;;;;17.20;11.80;;;;;;;;;;4953192;29;20544;-86
2023/12/01 04:58:45;;;;;;;17.50;12.43;;;;;;;;;;4960760;28;20646;-85
2023/12/01 05:01:49;;;;;;;19.93;13.20;;;;;;;;;;4963200;29;20552;-85
2023/12/01 05:04:53;;;;;;;17.43;12.30;;;;;;;;;;4949861;29;20903;-85
2023/12/01 05:07:59;;;;;;;19.83;12.60;;;;;;;;;;4960844;29;21190;-85
2023/12/01 05:11:04;;;;;;;18.70;12.13;;;;;;;;;;4960894;29;20549;-85
2023/12/01 05:14:10;;;;;;;17.43;11.63;;;;;;;;;;4949433;29;21104;-85
2023/12/01 05:17:14;;;;;;;19.97;13.67;;;;;;;;;;4961020;29;20649;-85
2023/12/01 05:20:19;;;;;;;25.67;15.83;;;;;;;;;;4949248;29;20928;-86
2023/12/01 05:23:23;;;;;;;28.70;17.87;;;;;;;;;;4948945;29;20545;-86
2023/12/01 05:26:28;;;;;;;34.43;19.27;;;;;;;;;;4960390;29;20187;-86
2023/12/01 05:29:34;;;;;;;26.47;17.33;;;;;;;;;;4960079;29;20539;-86
2023/12/01 05:32:42;;;;;;;21.77;13.70;;;;;;;;;;4959460;29;20547;-86
2023/12/01 05:35:46;;;;;;;22.67;13.93;;;;;;;;;;4960371;29;20641;-86
2023/12/01 05:38:50;;;;;;;18.63;12.77;;;;;;;;;;4948990;29;20977;-86
2023/12/01 05:41:54;;;;;;;19.87;13.03;;;;;;;;;;4949062;29;20556;-86
2023/12/01 05:44:58;;;;;;;18.60;12.33;;;;;;;;;;4961669;29;20543;-86
2023/12/01 05:48:06;;;;;;;20.10;12.67;;;;;;;;;;4949454;29;20622;-85
2023/12/01 05:51:10;;;;;;;17.23;11.97;;;;;;;;;;4962398;29;20552;-85
2023/12/01 05:54:15;;;;;;;16.57;11.50;;;;;;;;;;4949420;29;20544;-85
2023/12/01 06:16:45;;;;;;;18.33;12.03;;;;;;;;;;5296327;23;20694;-84
2023/12/01 06:19:49;;;;;;;17.63;12.70;;;;;;;;;;4927373;29;20671;-82
2023/12/01 06:22:59;;;;;;;18.17;12.83;;;;;;;;;;4949481;29;20563;-82
2023/12/01 06:26:04;;;;;;;20.63;13.73;;;;;;;;;;4939749;29;20556;-82
2023/12/01 06:29:08;;;;;;;16.60;11.90;;;;;;;;;;4927119;29;20559;-81
2023/12/01 06:32:13;;;;;;;20.13;14.03;;;;;;;;;;4938755;29;20547;-82
2023/12/01 06:35:22;;;;;;;17.53;12.50;;;;;;;;;;4939767;29;20572;-81
2023/12/01 06:38:26;;;;;;;15.50;11.60;;;;;;;;;;4929119;29;20655;-82
2023/12/01 06:41:30;;;;;;;17.83;12.33;;;;;;;;;;4939256;29;21110;-81
2023/12/01 06:44:34;;;;;;;17.90;12.23;;;;;;;;;;4928629;29;20565;-82
2023/12/01 06:47:41;;;;;;;14.87;10.20;;;;;;;;;;4939043;29;21237;-81
2023/12/01 06:50:46;;;;;;;19.40;12.67;;;;;;;;;;4926491;29;20539;-83
2023/12/01 06:53:51;;;;;;;21.33;13.47;;;;;;;;;;4926829;29;20556;-82
2023/12/01 06:56:55;;;;;;;18.53;12.57;;;;;;;;;;4937886;29;20627;-82
2023/12/01 06:59:59;;;;;;;19.43;13.40;;;;;;;;;;4926933;29;20216;-83
2023/12/01 07:03:05;;;;;;;19.17;12.80;;;;;;;;;;4926075;29;20554;-83
2023/12/01 07:06:09;;;;;;;20.93;12.93;;;;;;;;;;4938564;29;20552;-84
2023/12/01 07:09:17;;;;;;;18.50;12.43;;;;;;;;;;4938742;29;20176;-84
2023/12/01 07:12:21;;;;;;;21.33;13.17;;;;;;;;;;4927358;29;20544;-86
2023/12/01 07:15:27;;;;;;;22.10;12.57;;;;;;;;;;4914901;29;20638;-86
2023/12/01 07:18:31;;;;;;;19.90;12.60;;;;;;;;;;4924638;29;20676;-87
2023/12/01 07:21:35;;;;;;;21.20;12.80;;;;;;;;;;4924864;29;20551;-87
2023/12/01 07:24:40;;;;;;;19.70;12.87;;;;;;;;;;4924691;29;20564;-88
2023/12/01 07:27:44;;;;;;;22.43;13.87;;;;;;;;;;4936927;29;20634;-87
2023/12/01 07:30:48;;;;;;;21.63;13.83;;;;;;;;;;4925236;29;20548;-88
2023/12/01 07:33:52;;;;;;;19.27;13.07;;;;;;;;;;4925152;29;20562;-88
2023/12/01 07:36:56;;;;;;;24.50;14.10;;;;;;;;;;4924673;29;20631;-88
2023/12/01 07:40:01;;;;;;;21.10;13.80;;;;;;;;;;4914226;29;20967;-88
2023/12/01 07:43:05;;;;;;;21.03;13.33;;;;;;;;;;4925111;29;20547;-88
2023/12/01 07:46:09;;;;;;;20.77;13.67;;;;;;;;;;4925151;29;20553;-89
2023/12/01 07:49:13;;;;;;;24.90;14.27;;;;;;;;;;4914137;29;20548;-89
2023/12/01 07:52:17;;;;;;;24.53;14.47;;;;;;;;;;4924541;29;20564;-89
2023/12/01 07:55:22;;;;;;;21.47;14.40;;;;;;;;;;4924611;29;20563;-88
2023/12/01 07:58:26;;;;;;;19.37;12.93;;;;;;;;;;4924565;29;20663;-88
2023/12/01 08:01:29;;;;;;;20.23;12.40;;;;;;;;;;4903030;29;20557;-88
2023/12/01 08:04:33;;;;;;;20.23;13.60;;;;;;;;;;4914055;29;20199;-87
2023/12/01 08:07:37;;;;;;;19.07;13.10;;;;;;;;;;4924495;29;20631;-87
2023/12/01 08:10:42;;;;;;;21.10;13.70;;;;;;;;;;4924862;29;20545;-87
2023/12/01 08:13:47;;;;;;;20.20;13.27;;;;;;;;;;4924378;29;20187;-87
2023/12/01 08:16:52;;;;;;;17.30;12.43;;;;;;;;;;4902678;29;20648;-87
2023/12/01 08:19:55;;;;;;;34.13;18.53;;;;;;;;;;4935153;29;20616;-86
2023/12/01 08:23:00;;;;;;;31.10;18.47;;;;;;;;;;4924460;29;20547;-87
2023/12/01 08:26:04;;;;;;;21.23;13.47;;;;;;;;;;4924619;29;20534;-87
2023/12/01 08:29:08;;;;;;;18.13;12.60;;;;;;;;;;4924326;29;20253;-87
2023/12/01 08:32:12;;;;;;;16.67;11.43;;;;;;;;;;4925401;29;20555;-87
2023/12/01 08:35:17;;;;;;;15.70;12.13;;;;;;;;;;4927749;29;20188;-87
2023/12/01 08:38:22;;;;;;;16.60;11.70;;;;;;;;;;4927641;29;20227;-86
2023/12/01 08:41:26;;;;;;;15.70;11.67;;;;;;;;;;4917683;29;20192;-85
2023/12/01 08:44:30;;;;;;;15.60;11.07;;;;;;;;;;4940312;29;20195;-86
2023/12/01 08:47:35;;;;;;;15.33;10.70;;;;;;;;;;4928958;29;20227;-85
2023/12/01 08:50:39;;;;;;;16.47;11.50;;;;;;;;;;4929754;29;20658;-85
2023/12/01 08:53:43;;;;;;;15.93;12.23;;;;;;;;;;4929541;29;20195;-85
2023/12/01 08:56:47;;;;;;;20.40;12.43;;;;;;;;;;4929382;29;20227;-84
2023/12/01 08:59:51;;;;;;;16.97;11.67;;;;;;;;;;4929354;29;20223;-85
2023/12/01 09:02:57;;;;;;;15.57;11.07;;;;;;;;;;4930587;29;20630;-84
2023/12/01 09:06:03;;;;;;;22.07;13.23;;;;;;;;;;4909024;29;20191;-85
2023/12/01 09:09:07;;;;;;;23.03;14.20;;;;;;;;;;4929340;29;20179;-86
2023/12/01 09:12:11;;;;;;;16.77;12.57;;;;;;;;;;4928662;29;20180;-86
2023/12/01 09:15:50;;;;;;;19.67;14.80;;;;;;;;;;4927186;29;20660;-89
2023/12/01 09:24:18;;;;;;;24.83;16.07;;;;;;;;;;4928113;29;20713;-86
2023/12/01 09:27:22;;;;;;;23.43;15.30;;;;;;;;;;4927106;29;20304;-84
2023/12/01 09:30:25;;;;;;;23.80;14.93;;;;;;;;;;4926926;29;20195;-84
2023/12/01 09:33:30;;;;;;;29.00;17.20;;;;;;;;;;4916382;29;20207;-84
2023/12/01 09:36:34;;;;;;;26.13;14.77;;;;;;;;;;4926423;29;20195;-84
2023/12/01 09:39:38;;;;;;;22.30;14.47;;;;;;;;;;4926266;29;20236;-84
2023/12/01 09:42:42;;;;;;;23.77;14.50;;;;;;;;;;4926335;29;20199;-85
2023/12/01 09:45:49;;;;;;;29.43;17.03;;;;;;;;;;4925899;29;20231;-84
2023/12/01 09:48:54;;;;;;;23.70;15.13;;;;;;;;;;4916526;29;20700;-84
2023/12/01 09:52:02;;;;;;;24.90;14.13;;;;;;;;;;4928107;29;20207;-84
2023/12/01 09:55:06;;;;;;;19.90;13.13;;;;;;;;;;4939984;29;20554;-85
2023/12/01 09:58:10;;;;;;;39.97;20.80;;;;;;;;;;4905602;29;20745;-87
2023/12/01 10:01:14;;;;;;;21.53;14.37;;;;;;;;;;4926291;29;20189;-87
2023/12/01 10:04:19;;;;;;;17.53;12.43;;;;;;;;;;4926590;29;20190;-86
2023/12/01 10:07:24;;;;;;;21.93;13.87;;;;;;;;;;4926937;29;20227;-86
2023/12/01 10:10:28;;;;;;;22.80;13.77;;;;;;;;;;4938300;29;20196;-85
2023/12/01 10:13:39;;;;;;;19.93;13.63;;;;;;;;;;4915627;29;20248;-85
2023/12/01 10:16:43;;;;;;;19.37;12.77;;;;;;;;;;4926511;29;20654;-85
2023/12/01 10:19:48;;;;;;;20.13;13.07;;;;;;;;;;4914726;29;20210;-85
2023/12/01 10:22:55;;;;;;;20.30;12.77;;;;;;;;;;4947762;29;20211;-86
2023/12/01 10:26:03;;;;;;;17.53;11.50;;;;;;;;;;4926081;29;20188;-86
2023/12/01 10:29:28;;;;;;;19.57;12.20;;;;;;;;;;4937135;29;20192;-86
2023/12/01 10:32:32;;;;;;;21.70;13.10;;;;;;;;;;4937705;29;20188;-85
2023/12/01 10:35:36;;;;;;;22.57;14.10;;;;;;;;;;4926018;29;20193;-86
2023/12/01 10:38:41;;;;;;;22.97;13.23;;;;;;;;;;4937545;29;20219;-85
2023/12/01 10:41:46;;;;;;;20.57;12.87;;;;;;;;;;4925942;29;20532;-87
2023/12/01 10:44:52;;;;;;;19.93;13.07;;;;;;;;;;4915337;29;20199;-86
2023/12/01 10:47:58;;;;;;;23.43;13.93;;;;;;;;;;4926497;29;20230;-85
2023/12/01 10:51:05;;;;;;;22.93;13.50;;;;;;;;;;4927431;29;20184;-85
2023/12/01 10:54:11;;;;;;;21.40;12.80;;;;;;;;;;4925830;29;20181;-87
2023/12/01 10:57:16;;;;;;;23.93;13.93;;;;;;;;;;4924384;29;20225;-86
2023/12/01 11:00:29;;;;;;;22.57;12.77;;;;;;;;;;4915114;29;20210;-86
2023/12/01 11:03:35;;;;;;;23.13;13.97;;;;;;;;;;4925598;29;20192;-84
2023/12/01 11:06:48;;;;;;;20.10;12.87;;;;;;;;;;4927009;29;20193;-85
2023/12/01 11:10:21;;;;;;;20.70;12.37;;;;;;;;;;4916657;29;20173;-85
2023/12/01 11:13:50;;;;;;;18.47;12.17;;;;;;;;;;4927222;29;20267;-86
2023/12/01 11:16:54;;;;;;;21.37;12.73;;;;;;;;;;4927093;29;20219;-85
2023/12/01 11:19:58;;;;;;;19.67;11.93;;;;;;;;;;4949090;29;20277;-85
2023/12/01 11:23:23;;;;;;;17.13;12.03;;;;;;;;;;4937893;29;20554;-85
2023/12/01 11:26:29;;;;;;;21.47;11.33;;;;;;;;;;4914352;29;20192;-86
2023/12/01 11:29:32;;;;;;;19.20;11.50;;;;;;;;;;5237609;23;20230;-86
2023/12/01 11:32:40;;;;;;;18.43;11.33;;;;;;;;;;4953908;28;20193;-85
2023/12/01 11:36:20;;;;;;;16.93;11.57;;;;;;;;;;4965073;28;20189;-84
2023/12/01 11:39:29;;;;;;;21.33;11.60;;;;;;;;;;4956996;29;20286;-85
2023/12/01 11:42:33;;;;;;;17.70;11.63;;;;;;;;;;4958012;29;20553;-85
2023/12/01 11:45:41;;;;;;;17.93;12.53;;;;;;;;;;4946322;29;20190;-85
2023/12/01 11:48:47;;;;;;;19.43;11.50;;;;;;;;;;4945912;29;20225;-85
2023/12/01 11:51:51;;;;;;;15.97;11.47;;;;;;;;;;4959418;29;20175;-85
2023/12/01 11:54:55;;;;;;;15.40;10.57;;;;;;;;;;4958536;29;20198;-85
2023/12/01 12:01:47;;;;;;;16.03;11.03;;;;;;;;;;4995845;28;20694;-85
2023/12/01 12:04:51;;;;;;;14.83;11.70;;;;;;;;;;4995191;28;20663;-86
2023/12/01 12:07:56;;;;;;;17.77;11.53;;;;;;;;;;4997021;28;20218;-85
2023/12/01 12:11:00;;;;;;;14.33;10.80;;;;;;;;;;4999038;28;20185;-83
2023/12/01 12:14:05;;;;;;;15.77;11.20;;;;;;;;;;4998957;28;20191;-82
2023/12/01 12:17:09;;;;;;;18.17;11.93;;;;;;;;;;4998884;28;20715;-83
2023/12/01 12:20:22;;;;;;;17.07;11.77;;;;;;;;;;4988056;28;20213;-83
2023/12/01 12:23:26;;;;;;;17.40;11.97;;;;;;;;;;4987466;28;20182;-83
2023/12/01 12:26:31;;;;;;;16.60;12.10;;;;;;;;;;4999517;28;20178;-83
2023/12/01 12:29:35;;;;;;;17.03;11.43;;;;;;;;;;4998447;28;20186;-83
2023/12/01 12:32:39;;;;;;;16.80;11.80;;;;;;;;;;4998893;28;20520;-83
2023/12/01 12:35:44;;;;;;;19.37;12.77;;;;;;;;;;4997538;28;20189;-83
2023/12/01 12:38:51;;;;;;;17.73;12.53;;;;;;;;;;4986211;28;20231;-83
2023/12/01 12:41:59;;;;;;;19.00;12.97;;;;;;;;;;4997356;28;20668;-83
2023/12/01 12:45:04;;;;;;;20.60;13.67;;;;;;;;;;5000938;28;20190;-83
2023/12/01 12:48:11;;;;;;;17.63;12.93;;;;;;;;;;5008472;28;20220;-83
2023/12/01 12:51:17;;;;;;;20.27;13.50;;;;;;;;;;5001737;28;20174;-83
2023/12/01 12:54:21;;;;;;;17.90;13.40;;;;;;;;;;5002747;28;20182;-83
2023/12/01 12:57:25;;;;;;;21.23;14.20;;;;;;;;;;5001247;28;20228;-83
2023/12/01 13:00:29;;;;;;;19.07;13.43;;;;;;;;;;4997973;28;20233;-83
2023/12/01 13:03:34;;;;;;;21.77;13.47;;;;;;;;;;4997935;28;20191;-83
2023/12/01 13:06:38;;;;;;;22.67;14.13;;;;;;;;;;4998290;28;20198;-83
2023/12/01 13:09:42;;;;;;;23.87;15.47;;;;;;;;;;4997469;28;20190;-82
2023/12/01 13:12:46;;;;;;;24.93;15.43;;;;;;;;;;4999840;28;20185;-83
2023/12/01 13:15:50;;;;;;;25.13;14.90;;;;;;;;;;4991232;28;20556;-83
2023/12/01 13:18:54;;;;;;;23.93;15.27;;;;;;;;;;4998132;28;20193;-83
2023/12/01 13:21:58;;;;;;;25.43;16.10;;;;;;;;;;4998290;28;20241;-84
2023/12/01 13:25:03;;;;;;;27.30;15.40;;;;;;;;;;4999228;28;20539;-83
2023/12/01 13:28:08;;;;;;;25.50;17.23;;;;;;;;;;4997071;28;20218;-82
2023/12/01 13:31:12;;;;;;;34.43;21.63;;;;;;;;;;4998472;28;20185;-82
2023/12/01 13:34:16;;;;;;;25.50;16.93;;;;;;;;;;4997916;28;20186;-83
2023/12/01 13:37:21;;;;;;;29.70;20.27;;;;;;;;;;4996777;28;20214;-83
2023/12/01 13:40:25;;;;;;;45.00;31.37;;;;;;;;;;4998397;28;20694;-82
2023/12/01 13:43:29;;;;;;;24.20;17.43;;;;;;;;;;4986349;28;20538;-83
2023/12/01 13:46:33;;;;;;;22.17;15.80;;;;;;;;;;4997288;28;20189;-83
2023/12/01 13:49:37;;;;;;;24.03;16.53;;;;;;;;;;4998457;28;20632;-85
2023/12/01 13:52:42;;;;;;;20.43;13.77;;;;;;;;;;4985375;28;20560;-83
2023/12/01 13:55:46;;;;;;;20.43;13.97;;;;;;;;;;4997432;28;20656;-83
2023/12/01 13:58:50;;;;;;;20.10;13.30;;;;;;;;;;4997476;28;20218;-83
2023/12/01 14:01:55;;;;;;;21.00;14.43;;;;;;;;;;4985275;28;20217;-83
2023/12/01 14:04:59;;;;;;;20.30;13.80;;;;;;;;;;4996915;28;20655;-83
2023/12/01 14:08:04;;;;;;;18.67;13.27;;;;;;;;;;4996528;28;20622;-83
2023/12/01 14:11:08;;;;;;;20.57;13.47;;;;;;;;;;4997172;28;20178;-84
2023/12/01 14:14:12;;;;;;;23.87;15.90;;;;;;;;;;4997656;28;20186;-84
2023/12/01 14:17:16;;;;;;;21.17;15.63;;;;;;;;;;4985616;28;20624;-84
2023/12/01 14:20:21;;;;;;;23.50;15.47;;;;;;;;;;4997791;28;20606;-82
2023/12/01 14:23:25;;;;;;;21.43;14.10;;;;;;;;;;4996976;28;20543;-84
2023/12/01 14:26:29;;;;;;;20.03;13.13;;;;;;;;;;4996618;28;20569;-83
2023/12/01 14:29:35;;;;;;;19.13;13.23;;;;;;;;;;4996403;28;20552;-83
2023/12/01 14:32:41;;;;;;;18.40;12.93;;;;;;;;;;4998577;28;20545;-83
2023/12/01 14:35:45;;;;;;;18.83;12.97;;;;;;;;;;4999191;28;20908;-83
2023/12/01 14:38:50;;;;;;;18.10;12.77;;;;;;;;;;4998562;28;20632;-83
2023/12/01 14:41:54;;;;;;;20.63;13.97;;;;;;;;;;4998839;28;20596;-83
2023/12/01 14:44:59;;;;;;;18.47;12.77;;;;;;;;;;4996694;28;20547;-83
2023/12/01 14:48:04;;;;;;;20.03;13.57;;;;;;;;;;4985753;28;20609;-84
2023/12/01 14:51:08;;;;;;;26.37;15.07;;;;;;;;;;4995833;28;20537;-85
2023/12/01 14:54:12;;;;;;;26.60;15.00;;;;;;;;;;4984458;28;21103;-83
2023/12/01 14:57:16;;;;;;;20.40;13.60;;;;;;;;;;4996125;28;20621;-84
2023/12/01 15:00:21;;;;;;;20.43;14.23;;;;;;;;;;4995430;28;21015;-84
2023/12/01 15:03:25;;;;;;;22.60;14.40;;;;;;;;;;4984748;28;20545;-84
2023/12/01 15:06:29;;;;;;;24.63;14.70;;;;;;;;;;4996368;28;20559;-83
2023/12/01 15:09:33;;;;;;;22.70;14.50;;;;;;;;;;4984294;28;20549;-83
2023/12/01 15:12:37;;;;;;;22.23;13.73;;;;;;;;;;4996399;28;20546;-85
2023/12/01 15:15:41;;;;;;;22.83;14.20;;;;;;;;;;4994255;28;20566;-85
2023/12/01 15:18:45;;;;;;;19.70;12.83;;;;;;;;;;4984969;28;20616;-86
2023/12/01 15:21:49;;;;;;;21.00;13.10;;;;;;;;;;4996748;28;20947;-86
2023/12/01 15:24:54;;;;;;;23.57;14.50;;;;;;;;;;4985354;28;20545;-85
2023/12/01 15:27:58;;;;;;;21.60;13.87;;;;;;;;;;4984841;28;20640;-84
2023/12/01 15:31:02;;;;;;;19.50;13.83;;;;;;;;;;4996369;28;20718;-83
2023/12/01 15:34:08;;;;;;;24.50;14.23;;;;;;;;;;4996358;28;20565;-84
2023/12/01 15:37:12;;;;;;;20.90;13.43;;;;;;;;;;4985424;28;20628;-84
2023/12/01 15:40:16;;;;;;;17.60;12.53;;;;;;;;;;4985663;28;20548;-84
2023/12/01 15:43:20;;;;;;;19.70;12.87;;;;;;;;;;5001041;28;20542;-84
2023/12/01 15:46:24;;;;;;;17.30;11.83;;;;;;;;;;5000361;28;20546;-83
2023/12/01 15:50:04;;;;;;;21.00;14.30;;;;;;;;;;5027621;23;20683;-84
2023/12/01 15:53:11;;;;;;;22.53;13.67;;;;;;;;;;4980689;28;20599;-82
2023/12/01 15:56:16;;;;;;;18.27;11.70;;;;;;;;;;4969254;29;20555;-87
2023/12/01 15:59:20;;;;;;;20.00;12.20;;;;;;;;;;4945032;29;20549;-83
2023/12/01 16:02:24;;;;;;;17.53;11.93;;;;;;;;;;4944376;29;20611;-86
2023/12/01 16:05:28;;;;;;;22.77;13.80;;;;;;;;;;4946992;29;20565;-85
2023/12/01 16:08:33;;;;;;;19.50;12.67;;;;;;;;;;4949022;29;20630;-85
2023/12/01 16:11:37;;;;;;;22.03;14.40;;;;;;;;;;4937302;29;20555;-84
2023/12/01 16:14:42;;;;;;;18.90;12.70;;;;;;;;;;4945998;29;20545;-87
2023/12/01 16:17:46;;;;;;;22.10;13.17;;;;;;;;;;4943205;29;20631;-85
2023/12/01 16:20:51;;;;;;;18.57;12.47;;;;;;;;;;4943442;29;21109;-84
2023/12/01 16:23:55;;;;;;;17.33;12.60;;;;;;;;;;4942096;29;21108;-84
2023/12/01 16:26:59;;;;;;;20.80;11.77;;;;;;;;;;4942067;29;20620;-84
2023/12/01 16:30:04;;;;;;;18.63;12.10;;;;;;;;;;4931825;29;20549;-84
2023/12/01 16:33:08;;;;;;;18.43;12.87;;;;;;;;;;4941969;29;21133;-84
2023/12/01 16:36:12;;;;;;;16.27;11.40;;;;;;;;;;4931002;29;20553;-84
2023/12/01 16:39:16;;;;;;;17.30;11.17;;;;;;;;;;4942213;29;20909;-84
2023/12/01 16:42:21;;;;;;;24.40;13.37;;;;;;;;;;4941746;29;20595;-84
2023/12/01 16:45:25;;;;;;;18.87;12.50;;;;;;;;;;4942291;29;20553;-84
2023/12/01 16:48:29;;;;;;;17.40;11.53;;;;;;;;;;4941215;29;20636;-84
2023/12/01 16:51:34;;;;;;;17.20;11.43;;;;;;;;;;4940526;29;20549;-83
2023/12/01 16:54:38;;;;;;;17.20;11.60;;;;;;;;;;4939998;29;21114;-83
2023/12/01 16:57:42;;;;;;;18.63;11.77;;;;;;;;;;4941145;29;20626;-85
2023/12/01 17:00:46;;;;;;;19.63;13.03;;;;;;;;;;4941545;29;20543;-84
2023/12/01 17:03:50;;;;;;;18.63;12.30;;;;;;;;;;4941075;29;20912;-84
2023/12/01 17:06:54;;;;;;;17.73;11.30;;;;;;;;;;4942693;29;20632;-84
2023/12/01 17:09:58;;;;;;;18.17;10.97;;;;;;;;;;4941303;29;20547;-84
2023/12/01 17:13:03;;;;;;;17.37;11.50;;;;;;;;;;4941120;29;20583;-85
2023/12/01 17:16:08;;;;;;;16.30;10.50;;;;;;;;;;4919351;29;20548;-84
2023/12/01 17:19:12;;;;;;;18.07;11.67;;;;;;;;;;4941467;29;20568;-84
2023/12/01 17:22:16;;;;;;;15.63;11.33;;;;;;;;;;4941382;29;20600;-84
2023/12/01 17:25:20;;;;;;;17.80;11.67;;;;;;;;;;4940618;29;20544;-85
2023/12/01 17:28:24;;;;;;;17.47;11.40;;;;;;;;;;4940376;29;20622;-84
2023/12/01 17:31:29;;;;;;;20.37;12.83;;;;;;;;;;4929403;29;20550;-85
2023/12/01 17:34:33;;;;;;;17.73;12.20;;;;;;;;;;4941108;29;21105;-84
2023/12/01 17:37:37;;;;;;;19.47;11.63;;;;;;;;;;4941815;29;20636;-85
2023/12/01 17:40:41;;;;;;;20.40;12.93;;;;;;;;;;4940644;29;20903;-84
2023/12/01 17:43:47;;;;;;;20.67;13.40;;;;;;;;;;4941284;29;20538;-84
2023/12/01 17:46:51;;;;;;;22.07;13.47;;;;;;;;;;4928788;29;20639;-84
2023/12/01 17:49:55;;;;;;;20.93;14.27;;;;;;;;;;4939922;29;20583;-84
2023/12/01 17:52:59;;;;;;;19.87;12.53;;;;;;;;;;4941436;29;20620;-84
2023/12/01 17:56:03;;;;;;;16.27;11.40;;;;;;;;;;4941061;29;20918;-84
2023/12/01 17:59:07;;;;;;;19.20;13.07;;;;;;;;;;4928949;29;20578;-85
2023/12/01 18:02:11;;;;;;;21.67;12.73;;;;;;;;;;4939780;29;21165;-84
2023/12/01 18:05:16;;;;;;;19.70;12.57;;;;;;;;;;4938925;29;20585;-84
2023/12/01 18:08:20;;;;;;;19.10;12.70;;;;;;;;;;4939492;29;20623;-84
2023/12/01 18:11:24;;;;;;;24.87;13.37;;;;;;;;;;4939285;29;20547;-84
2023/12/01 18:14:28;;;;;;;19.10;12.50;;;;;;;;;;4940608;29;20583;-84
2023/12/01 18:17:32;;;;;;;16.23;12.10;;;;;;;;;;4938890;29;20630;-84
2023/12/01 18:20:37;;;;;;;18.93;12.53;;;;;;;;;;4939567;29;20551;-84
2023/12/01 18:23:41;;;;;;;17.30;12.37;;;;;;;;;;4938288;29;20555;-84